sensor_id;sensor_type;location;lat;lon;timestamp;temperature;humidity
18454;DHT22;9356;52.202;20.950;2022-12-07T00:00:29;3.40;99.90
18454;DHT22;9356;52.202;20.950;2022-12-07T00:01:35;3.40;99.90
18454;DHT22;9356;52.202;20.950;2022-12-07T00:02:40;3.40;99.90
18454;DHT22;9356;52.202;20.950;2022-12-07T00:03:44;3.40;99.90
18454;DHT22;9356;52.202;20.950;2022-12-07T00:04:53;3.50;99.90
18454;DHT22;9356;52.202;20.950;2022-12-07T00:05:57;3.40;99.90
18454;DHT22;9356;52.202;20.950;2022-12-07T00:07:01;3.50;99.90
18454;DHT22;9356;52.202;20.950;2022-12-07T00:08:10;3.50;99.90
18454;DHT22;9356;52.202;20.950;2022-12-07T00:09:15;3.40;99.90
18454;DHT22;9356;52.202;20.950;2022-12-07T00:10:22;3.50;99.90
18454;DHT22;9356;52.202;20.950;2022-12-07T00:11:25;3.50;99.90
18454;DHT22;9356;52.202;20.950;2022-12-07T00:12:29;3.50;99.90
18454;DHT22;9356;52.202;20.950;2022-12-07T00:13:33;3.40;99.90
18454;DHT22;9356;52.202;20.950;2022-12-07T00:14:36;3.50;99.90
18454;DHT22;9356;52.202;20.950;2022-12-07T00:15:40;3.40;99.90
18454;DHT22;9356;52.202;20.950;2022-12-07T00:16:44;3.20;99.90
18454;DHT22;9356;52.202;20.950;2022-12-07T00:17:48;3.50;99.90
18454;DHT22;9356;52.202;20.950;2022-12-07T00:18:50;3.60;99.90
18454;DHT22;9356;52.202;20.950;2022-12-07T00:19:54;3.50;99.90
18454;DHT22;9356;52.202;20.950;2022-12-07T00:21:03;3.50;99.90
18454;DHT22;9356;52.202;20.950;2022-12-07T00:22:10;3.60;99.90
18454;DHT22;9356;52.202;20.950;2022-12-07T00:23:14;3.50;99.90
18454;DHT22;9356;52.202;20.950;2022-12-07T00:24:17;3.50;99.90
18454;DHT22;9356;52.202;20.950;2022-12-07T00:25:20;3.50;99.90
18454;DHT22;9356;52.202;20.950;2022-12-07T00:26:25;3.60;99.90
18454;DHT22;9356;52.202;20.950;2022-12-07T00:27:29;4.70;99.90
18454;DHT22;9356;52.202;20.950;2022-12-07T00:28:31;3.50;99.90
18454;DHT22;9356;52.202;20.950;2022-12-07T00:30:39;3.50;99.90
18454;DHT22;9356;52.202;20.950;2022-12-07T00:31:44;4.10;99.90
18454;DHT22;9356;52.202;20.950;2022-12-07T00:32:47;3.50;99.90
18454;DHT22;9356;52.202;20.950;2022-12-07T00:33:56;3.10;99.90
18454;DHT22;9356;52.202;20.950;2022-12-07T00:34:59;3.50;99.90
18454;DHT22;9356;52.202;20.950;2022-12-07T00:36:06;3.60;99.90
18454;DHT22;9356;52.202;20.950;2022-12-07T00:37:09;3.60;99.90
18454;DHT22;9356;52.202;20.950;2022-12-07T00:38:14;3.60;99.90
18454;DHT22;9356;52.202;20.950;2022-12-07T00:39:17;3.60;99.90
18454;DHT22;9356;52.202;20.950;2022-12-07T00:40:21;3.60;99.90
18454;DHT22;9356;52.202;20.950;2022-12-07T00:41:27;3.60;99.90
18454;DHT22;9356;52.202;20.950;2022-12-07T00:42:30;3.60;99.90
18454;DHT22;9356;52.202;20.950;2022-12-07T00:43:33;3.70;99.90
18454;DHT22;9356;52.202;20.950;2022-12-07T00:44:37;3.70;99.90
18454;DHT22;9356;52.202;20.950;2022-12-07T00:45:45;3.70;99.90
18454;DHT22;9356;52.202;20.950;2022-12-07T00:46:50;3.60;99.90
18454;DHT22;9356;52.202;20.950;2022-12-07T00:47:53;3.70;99.90
18454;DHT22;9356;52.202;20.950;2022-12-07T00:48:57;3.60;99.90
18454;DHT22;9356;52.202;20.950;2022-12-07T00:49:59;2.10;99.90
18454;DHT22;9356;52.202;20.950;2022-12-07T00:51:04;3.60;99.90
18454;DHT22;9356;52.202;20.950;2022-12-07T00:52:06;3.60;99.90
18454;DHT22;9356;52.202;20.950;2022-12-07T00:53:15;3.80;99.90
18454;DHT22;9356;52.202;20.950;2022-12-07T00:54:18;3.80;99.90
18454;DHT22;9356;52.202;20.950;2022-12-07T00:55:21;3.80;99.90
18454;DHT22;9356;52.202;20.950;2022-12-07T00:56:26;3.80;99.90
18454;DHT22;9356;52.202;20.950;2022-12-07T00:57:31;3.80;99.90
18454;DHT22;9356;52.202;20.950;2022-12-07T00:58:34;3.80;99.90
18454;DHT22;9356;52.202;20.950;2022-12-07T00:59:38;3.80;99.90
18454;DHT22;9356;52.202;20.950;2022-12-07T01:00:42;3.80;99.90
18454;DHT22;9356;52.202;20.950;2022-12-07T01:01:45;3.80;99.90
18454;DHT22;9356;52.202;20.950;2022-12-07T01:02:52;3.80;99.90
18454;DHT22;9356;52.202;20.950;2022-12-07T01:04:00;3.90;99.90
18454;DHT22;9356;52.202;20.950;2022-12-07T01:05:05;3.90;99.90
18454;DHT22;9356;52.202;20.950;2022-12-07T01:06:07;3.90;99.90
18454;DHT22;9356;52.202;20.950;2022-12-07T01:07:11;3.90;99.90
18454;DHT22;9356;52.202;20.950;2022-12-07T01:08:14;4.00;99.90
18454;DHT22;9356;52.202;20.950;2022-12-07T01:09:17;4.00;99.90
18454;DHT22;9356;52.202;20.950;2022-12-07T01:10:21;4.00;99.90
18454;DHT22;9356;52.202;20.950;2022-12-07T01:11:26;4.00;99.90
18454;DHT22;9356;52.202;20.950;2022-12-07T01:12:34;4.00;99.90
18454;DHT22;9356;52.202;20.950;2022-12-07T01:13:41;4.00;99.90
18454;DHT22;9356;52.202;20.950;2022-12-07T01:14:45;5.70;99.90
18454;DHT22;9356;52.202;20.950;2022-12-07T01:15:48;4.10;99.90
18454;DHT22;9356;52.202;20.950;2022-12-07T01:16:51;4.10;99.90
18454;DHT22;9356;52.202;20.950;2022-12-07T01:17:55;5.40;99.90
18454;DHT22;9356;52.202;20.950;2022-12-07T01:19:00;4.10;99.90
18454;DHT22;9356;52.202;20.950;2022-12-07T01:20:08;4.10;99.90
18454;DHT22;9356;52.202;20.950;2022-12-07T01:21:14;4.00;99.90
18454;DHT22;9356;52.202;20.950;2022-12-07T01:22:17;4.10;99.90
18454;DHT22;9356;52.202;20.950;2022-12-07T01:23:20;4.10;99.90
18454;DHT22;9356;52.202;20.950;2022-12-07T01:24:23;3.60;99.90
18454;DHT22;9356;52.202;20.950;2022-12-07T01:25:26;4.10;99.90
18454;DHT22;9356;52.202;20.950;2022-12-07T01:26:30;4.10;99.90
18454;DHT22;9356;52.202;20.950;2022-12-07T01:27:32;4.10;99.90
18454;DHT22;9356;52.202;20.950;2022-12-07T01:28:37;4.20;99.90
18454;DHT22;9356;52.202;20.950;2022-12-07T01:29:39;4.20;99.90
18454;DHT22;9356;52.202;20.950;2022-12-07T01:30:43;4.20;99.90
18454;DHT22;9356;52.202;20.950;2022-12-07T01:31:52;4.30;99.90
18454;DHT22;9356;52.202;20.950;2022-12-07T01:32:57;4.30;99.90
18454;DHT22;9356;52.202;20.950;2022-12-07T01:34:00;4.30;99.90
18454;DHT22;9356;52.202;20.950;2022-12-07T01:35:04;4.30;99.90
18454;DHT22;9356;52.202;20.950;2022-12-07T01:36:14;5.30;99.90
18454;DHT22;9356;52.202;20.950;2022-12-07T01:37:17;4.30;99.90
18454;DHT22;9356;52.202;20.950;2022-12-07T01:38:20;4.40;99.90
18454;DHT22;9356;52.202;20.950;2022-12-07T01:39:23;4.30;99.90
18454;DHT22;9356;52.202;20.950;2022-12-07T01:40:27;4.30;99.90
18454;DHT22;9356;52.202;20.950;2022-12-07T01:41:46;4.30;99.90
18454;DHT22;9356;52.202;20.950;2022-12-07T01:42:55;4.30;99.90
18454;DHT22;9356;52.202;20.950;2022-12-07T01:44:15;4.30;99.90
18454;DHT22;9356;52.202;20.950;2022-12-07T01:45:36;2.70;99.90
18454;DHT22;9356;52.202;20.950;2022-12-07T01:46:40;4.30;99.90
18454;DHT22;9356;52.202;20.950;2022-12-07T01:47:48;4.40;99.90
18454;DHT22;9356;52.202;20.950;2022-12-07T01:48:59;3.70;99.90
18454;DHT22;9356;52.202;20.950;2022-12-07T01:50:04;4.40;99.90
18454;DHT22;9356;52.202;20.950;2022-12-07T01:51:10;4.30;99.90
18454;DHT22;9356;52.202;20.950;2022-12-07T01:52:17;4.30;99.90
18454;DHT22;9356;52.202;20.950;2022-12-07T01:53:25;4.20;99.90
18454;DHT22;9356;52.202;20.950;2022-12-07T01:54:33;3.00;99.90
18454;DHT22;9356;52.202;20.950;2022-12-07T01:55:40;4.20;99.90
18454;DHT22;9356;52.202;20.950;2022-12-07T01:56:50;4.20;99.90
18454;DHT22;9356;52.202;20.950;2022-12-07T01:57:54;4.30;99.90
18454;DHT22;9356;52.202;20.950;2022-12-07T01:59:00;4.30;99.90
18454;DHT22;9356;52.202;20.950;2022-12-07T02:00:06;4.30;99.90
18454;DHT22;9356;52.202;20.950;2022-12-07T02:01:15;4.30;99.90
18454;DHT22;9356;52.202;20.950;2022-12-07T02:02:27;4.30;99.90
18454;DHT22;9356;52.202;20.950;2022-12-07T02:03:36;4.30;99.90
18454;DHT22;9356;52.202;20.950;2022-12-07T02:04:42;4.20;99.90
18454;DHT22;9356;52.202;20.950;2022-12-07T02:05:50;4.30;99.90
18454;DHT22;9356;52.202;20.950;2022-12-07T02:06:55;4.30;99.90
18454;DHT22;9356;52.202;20.950;2022-12-07T02:07:59;4.20;99.90
18454;DHT22;9356;52.202;20.950;2022-12-07T02:09:03;4.20;99.90
18454;DHT22;9356;52.202;20.950;2022-12-07T02:10:15;4.10;99.90
18454;DHT22;9356;52.202;20.950;2022-12-07T02:11:23;4.00;99.90
18454;DHT22;9356;52.202;20.950;2022-12-07T02:12:26;4.10;99.90
18454;DHT22;9356;52.202;20.950;2022-12-07T02:13:32;4.10;99.90
18454;DHT22;9356;52.202;20.950;2022-12-07T02:14:36;4.20;99.90
18454;DHT22;9356;52.202;20.950;2022-12-07T02:16:00;3.30;99.90
18454;DHT22;9356;52.202;20.950;2022-12-07T02:17:14;2.80;99.90
18454;DHT22;9356;52.202;20.950;2022-12-07T02:18:36;4.20;99.90
18454;DHT22;9356;52.202;20.950;2022-12-07T02:20:11;4.10;99.90
18454;DHT22;9356;52.202;20.950;2022-12-07T02:21:31;2.80;99.90
18454;DHT22;9356;52.202;20.950;2022-12-07T02:24:45;4.00;99.90
18454;DHT22;9356;52.202;20.950;2022-12-07T02:26:12;4.10;99.90
18454;DHT22;9356;52.202;20.950;2022-12-07T02:27:39;4.10;99.90
18454;DHT22;9356;52.202;20.950;2022-12-07T02:29:08;4.10;99.90
18454;DHT22;9356;52.202;20.950;2022-12-07T02:30:14;4.10;99.90
18454;DHT22;9356;52.202;20.950;2022-12-07T02:31:24;4.00;99.90
18454;DHT22;9356;52.202;20.950;2022-12-07T02:32:41;4.00;99.90
18454;DHT22;9356;52.202;20.950;2022-12-07T02:33:58;4.00;99.90
18454;DHT22;9356;52.202;20.950;2022-12-07T02:35:15;4.00;99.90
18454;DHT22;9356;52.202;20.950;2022-12-07T02:36:28;5.40;99.90
18454;DHT22;9356;52.202;20.950;2022-12-07T02:37:39;3.90;99.90
18454;DHT22;9356;52.202;20.950;2022-12-07T02:38:50;3.90;99.90
18454;DHT22;9356;52.202;20.950;2022-12-07T02:39:59;3.90;99.90
18454;DHT22;9356;52.202;20.950;2022-12-07T02:41:10;3.90;99.90
18454;DHT22;9356;52.202;20.950;2022-12-07T02:42:19;4.00;99.90
18454;DHT22;9356;52.202;20.950;2022-12-07T02:43:28;4.00;99.90
18454;DHT22;9356;52.202;20.950;2022-12-07T02:44:35;3.90;99.90
18454;DHT22;9356;52.202;20.950;2022-12-07T02:45:41;2.80;99.90
18454;DHT22;9356;52.202;20.950;2022-12-07T02:46:52;4.00;99.90
18454;DHT22;9356;52.202;20.950;2022-12-07T02:47:59;4.00;99.90
18454;DHT22;9356;52.202;20.950;2022-12-07T02:49:04;4.10;99.90
18454;DHT22;9356;52.202;20.950;2022-12-07T02:50:13;4.10;99.90
18454;DHT22;9356;52.202;20.950;2022-12-07T02:51:17;4.00;99.90
18454;DHT22;9356;52.202;20.950;2022-12-07T02:52:21;4.00;99.90
18454;DHT22;9356;52.202;20.950;2022-12-07T02:53:32;4.10;99.90
18454;DHT22;9356;52.202;20.950;2022-12-07T02:54:35;4.20;99.90
18454;DHT22;9356;52.202;20.950;2022-12-07T02:55:42;4.10;99.90
18454;DHT22;9356;52.202;20.950;2022-12-07T02:56:49;4.00;99.90
18454;DHT22;9356;52.202;20.950;2022-12-07T02:58:06;4.00;99.90
18454;DHT22;9356;52.202;20.950;2022-12-07T02:59:23;4.10;99.90
18454;DHT22;9356;52.202;20.950;2022-12-07T03:00:34;4.10;99.90
18454;DHT22;9356;52.202;20.950;2022-12-07T03:01:51;4.10;99.90
18454;DHT22;9356;52.202;20.950;2022-12-07T03:03:09;4.00;99.90
18454;DHT22;9356;52.202;20.950;2022-12-07T03:04:28;4.00;99.90
18454;DHT22;9356;52.202;20.950;2022-12-07T03:06:06;3.90;99.90
18454;DHT22;9356;52.202;20.950;2022-12-07T03:07:24;3.80;99.90
18454;DHT22;9356;52.202;20.950;2022-12-07T03:08:37;3.80;99.90
18454;DHT22;9356;52.202;20.950;2022-12-07T03:09:50;3.80;99.90
18454;DHT22;9356;52.202;20.950;2022-12-07T03:10:59;3.80;99.90
18454;DHT22;9356;52.202;20.950;2022-12-07T03:12:12;3.80;99.90
18454;DHT22;9356;52.202;20.950;2022-12-07T03:13:23;3.80;99.90
18454;DHT22;9356;52.202;20.950;2022-12-07T03:14:36;3.80;99.90
18454;DHT22;9356;52.202;20.950;2022-12-07T03:15:49;3.90;99.90
18454;DHT22;9356;52.202;20.950;2022-12-07T03:17:01;3.80;99.90
18454;DHT22;9356;52.202;20.950;2022-12-07T03:18:05;3.80;99.90
18454;DHT22;9356;52.202;20.950;2022-12-07T03:19:15;3.80;99.90
18454;DHT22;9356;52.202;20.950;2022-12-07T03:20:23;3.80;99.90
18454;DHT22;9356;52.202;20.950;2022-12-07T03:21:33;3.60;99.90
18454;DHT22;9356;52.202;20.950;2022-12-07T03:22:39;3.50;99.90
18454;DHT22;9356;52.202;20.950;2022-12-07T03:23:49;3.40;99.90
18454;DHT22;9356;52.202;20.950;2022-12-07T03:25:00;3.40;99.90
18454;DHT22;9356;52.202;20.950;2022-12-07T03:26:13;3.30;99.90
18454;DHT22;9356;52.202;20.950;2022-12-07T03:27:22;3.40;99.90
18454;DHT22;9356;52.202;20.950;2022-12-07T03:28:33;3.40;99.90
18454;DHT22;9356;52.202;20.950;2022-12-07T03:29:46;3.40;99.90
18454;DHT22;9356;52.202;20.950;2022-12-07T03:31:17;3.50;99.90
18454;DHT22;9356;52.202;20.950;2022-12-07T03:32:29;3.80;99.90
18454;DHT22;9356;52.202;20.950;2022-12-07T03:33:39;3.40;99.90
18454;DHT22;9356;52.202;20.950;2022-12-07T03:34:50;3.40;99.90
18454;DHT22;9356;52.202;20.950;2022-12-07T03:36:04;3.40;99.90
18454;DHT22;9356;52.202;20.950;2022-12-07T03:37:14;3.40;99.90
18454;DHT22;9356;52.202;20.950;2022-12-07T03:38:23;3.30;99.90
18454;DHT22;9356;52.202;20.950;2022-12-07T03:39:33;3.30;99.90
18454;DHT22;9356;52.202;20.950;2022-12-07T03:40:43;3.30;99.90
18454;DHT22;9356;52.202;20.950;2022-12-07T03:41:47;3.30;99.90
18454;DHT22;9356;52.202;20.950;2022-12-07T03:42:55;3.20;99.90
18454;DHT22;9356;52.202;20.950;2022-12-07T03:43:58;3.10;99.90
18454;DHT22;9356;52.202;20.950;2022-12-07T03:45:04;3.20;99.90
18454;DHT22;9356;52.202;20.950;2022-12-07T03:46:19;3.10;99.90
18454;DHT22;9356;52.202;20.950;2022-12-07T03:47:29;3.10;99.90
18454;DHT22;9356;52.202;20.950;2022-12-07T03:48:39;3.20;99.90
18454;DHT22;9356;52.202;20.950;2022-12-07T03:49:52;2.40;99.90
18454;DHT22;9356;52.202;20.950;2022-12-07T03:51:02;3.20;99.90
18454;DHT22;9356;52.202;20.950;2022-12-07T03:52:16;3.20;99.90
18454;DHT22;9356;52.202;20.950;2022-12-07T03:53:29;3.30;99.90
18454;DHT22;9356;52.202;20.950;2022-12-07T03:54:39;3.30;99.90
18454;DHT22;9356;52.202;20.950;2022-12-07T03:55:47;3.30;99.90
18454;DHT22;9356;52.202;20.950;2022-12-07T03:56:53;3.40;99.90
18454;DHT22;9356;52.202;20.950;2022-12-07T03:58:04;3.30;99.90
18454;DHT22;9356;52.202;20.950;2022-12-07T03:59:08;3.10;99.90
18454;DHT22;9356;52.202;20.950;2022-12-07T04:00:13;3.20;99.90
18454;DHT22;9356;52.202;20.950;2022-12-07T04:01:20;3.10;99.90
18454;DHT22;9356;52.202;20.950;2022-12-07T04:02:27;3.40;99.90
18454;DHT22;9356;52.202;20.950;2022-12-07T04:03:30;3.10;99.90
18454;DHT22;9356;52.202;20.950;2022-12-07T04:04:34;3.10;99.90
18454;DHT22;9356;52.202;20.950;2022-12-07T04:05:37;3.20;99.90
18454;DHT22;9356;52.202;20.950;2022-12-07T04:06:40;3.20;99.90
18454;DHT22;9356;52.202;20.950;2022-12-07T04:07:43;3.20;99.90
18454;DHT22;9356;52.202;20.950;2022-12-07T04:08:46;3.20;99.90
18454;DHT22;9356;52.202;20.950;2022-12-07T04:09:48;3.20;99.90
18454;DHT22;9356;52.202;20.950;2022-12-07T04:10:52;3.30;99.90
18454;DHT22;9356;52.202;20.950;2022-12-07T04:11:55;3.30;99.90
18454;DHT22;9356;52.202;20.950;2022-12-07T04:12:59;3.30;99.90
18454;DHT22;9356;52.202;20.950;2022-12-07T04:14:01;3.30;99.90
18454;DHT22;9356;52.202;20.950;2022-12-07T04:15:23;3.30;99.90
18454;DHT22;9356;52.202;20.950;2022-12-07T04:16:28;3.40;99.90
18454;DHT22;9356;52.202;20.950;2022-12-07T04:17:31;3.40;99.90
18454;DHT22;9356;52.202;20.950;2022-12-07T04:18:35;3.40;99.90
18454;DHT22;9356;52.202;20.950;2022-12-07T04:19:42;3.40;99.90
18454;DHT22;9356;52.202;20.950;2022-12-07T04:20:46;3.60;99.90
18454;DHT22;9356;52.202;20.950;2022-12-07T04:21:48;3.40;99.90
18454;DHT22;9356;52.202;20.950;2022-12-07T04:22:51;3.40;99.90
18454;DHT22;9356;52.202;20.950;2022-12-07T04:23:54;3.40;99.90
18454;DHT22;9356;52.202;20.950;2022-12-07T04:24:57;3.40;99.90
18454;DHT22;9356;52.202;20.950;2022-12-07T04:25:59;3.40;99.90
18454;DHT22;9356;52.202;20.950;2022-12-07T04:27:03;3.40;99.90
18454;DHT22;9356;52.202;20.950;2022-12-07T04:28:05;3.50;99.90
18454;DHT22;9356;52.202;20.950;2022-12-07T04:29:10;3.50;99.90
18454;DHT22;9356;52.202;20.950;2022-12-07T04:30:12;3.40;99.90
18454;DHT22;9356;52.202;20.950;2022-12-07T04:31:16;3.40;99.90
18454;DHT22;9356;52.202;20.950;2022-12-07T04:32:20;3.40;99.90
18454;DHT22;9356;52.202;20.950;2022-12-07T04:33:23;3.40;99.90
18454;DHT22;9356;52.202;20.950;2022-12-07T04:34:26;3.40;99.90
18454;DHT22;9356;52.202;20.950;2022-12-07T04:35:29;3.40;99.90
18454;DHT22;9356;52.202;20.950;2022-12-07T04:36:32;3.40;99.90
18454;DHT22;9356;52.202;20.950;2022-12-07T04:37:36;3.40;99.90
18454;DHT22;9356;52.202;20.950;2022-12-07T04:38:41;3.40;99.90
18454;DHT22;9356;52.202;20.950;2022-12-07T04:39:49;3.30;99.90
18454;DHT22;9356;52.202;20.950;2022-12-07T04:40:51;3.20;99.90
18454;DHT22;9356;52.202;20.950;2022-12-07T04:41:56;3.20;99.90
18454;DHT22;9356;52.202;20.950;2022-12-07T04:42:58;3.30;99.90
18454;DHT22;9356;52.202;20.950;2022-12-07T04:44:04;3.20;99.90
18454;DHT22;9356;52.202;20.950;2022-12-07T04:45:09;3.20;99.90
18454;DHT22;9356;52.202;20.950;2022-12-07T04:46:13;3.10;99.90
18454;DHT22;9356;52.202;20.950;2022-12-07T04:47:15;3.10;99.90
18454;DHT22;9356;52.202;20.950;2022-12-07T04:48:20;3.10;99.90
18454;DHT22;9356;52.202;20.950;2022-12-07T04:49:25;3.00;99.90
18454;DHT22;9356;52.202;20.950;2022-12-07T04:50:28;3.00;99.90
18454;DHT22;9356;52.202;20.950;2022-12-07T04:51:31;3.40;99.90
18454;DHT22;9356;52.202;20.950;2022-12-07T04:52:34;3.00;99.90
18454;DHT22;9356;52.202;20.950;2022-12-07T04:53:37;3.00;99.90
18454;DHT22;9356;52.202;20.950;2022-12-07T04:54:40;3.00;99.90
18454;DHT22;9356;52.202;20.950;2022-12-07T04:55:44;3.10;99.90
18454;DHT22;9356;52.202;20.950;2022-12-07T04:56:49;3.10;99.90
18454;DHT22;9356;52.202;20.950;2022-12-07T04:57:52;3.00;99.90
18454;DHT22;9356;52.202;20.950;2022-12-07T04:58:55;3.00;99.90
18454;DHT22;9356;52.202;20.950;2022-12-07T04:59:58;2.90;99.90
18454;DHT22;9356;52.202;20.950;2022-12-07T05:01:02;1.80;99.90
18454;DHT22;9356;52.202;20.950;2022-12-07T05:02:05;1.60;99.90
18454;DHT22;9356;52.202;20.950;2022-12-07T05:03:08;3.00;99.90
18454;DHT22;9356;52.202;20.950;2022-12-07T05:04:12;3.00;99.90
18454;DHT22;9356;52.202;20.950;2022-12-07T05:05:15;3.00;99.90
18454;DHT22;9356;52.202;20.950;2022-12-07T05:06:19;3.00;99.90
18454;DHT22;9356;52.202;20.950;2022-12-07T05:07:23;3.10;99.90
18454;DHT22;9356;52.202;20.950;2022-12-07T05:08:26;3.10;99.90
18454;DHT22;9356;52.202;20.950;2022-12-07T05:09:29;3.20;99.90
18454;DHT22;9356;52.202;20.950;2022-12-07T05:10:32;3.20;99.90
18454;DHT22;9356;52.202;20.950;2022-12-07T05:11:34;3.30;99.90
18454;DHT22;9356;52.202;20.950;2022-12-07T05:12:43;3.30;99.90
18454;DHT22;9356;52.202;20.950;2022-12-07T05:13:47;3.30;99.90
18454;DHT22;9356;52.202;20.950;2022-12-07T05:14:50;3.40;99.90
18454;DHT22;9356;52.202;20.950;2022-12-07T05:15:54;3.40;99.90
18454;DHT22;9356;52.202;20.950;2022-12-07T05:16:56;3.40;99.90
18454;DHT22;9356;52.202;20.950;2022-12-07T05:18:05;3.40;99.90
18454;DHT22;9356;52.202;20.950;2022-12-07T05:19:08;4.90;99.90
18454;DHT22;9356;52.202;20.950;2022-12-07T05:20:13;3.40;99.90
18454;DHT22;9356;52.202;20.950;2022-12-07T05:21:15;3.30;99.90
18454;DHT22;9356;52.202;20.950;2022-12-07T05:22:18;3.10;99.90
18454;DHT22;9356;52.202;20.950;2022-12-07T05:23:29;3.30;99.90
18454;DHT22;9356;52.202;20.950;2022-12-07T05:24:33;3.30;99.90
18454;DHT22;9356;52.202;20.950;2022-12-07T05:25:37;3.40;99.90
18454;DHT22;9356;52.202;20.950;2022-12-07T05:26:41;3.40;99.90
18454;DHT22;9356;52.202;20.950;2022-12-07T05:27:44;3.40;99.90
18454;DHT22;9356;52.202;20.950;2022-12-07T05:28:50;3.30;99.90
18454;DHT22;9356;52.202;20.950;2022-12-07T05:29:54;3.40;99.90
18454;DHT22;9356;52.202;20.950;2022-12-07T05:30:57;3.50;99.90
18454;DHT22;9356;52.202;20.950;2022-12-07T05:32:01;3.40;99.90
18454;DHT22;9356;52.202;20.950;2022-12-07T05:33:04;3.40;99.90
18454;DHT22;9356;52.202;20.950;2022-12-07T05:34:12;3.30;99.90
18454;DHT22;9356;52.202;20.950;2022-12-07T05:35:17;3.30;99.90
18454;DHT22;9356;52.202;20.950;2022-12-07T05:36:20;3.30;99.90
18454;DHT22;9356;52.202;20.950;2022-12-07T05:37:23;3.30;99.90
18454;DHT22;9356;52.202;20.950;2022-12-07T05:38:25;3.30;99.90
18454;DHT22;9356;52.202;20.950;2022-12-07T05:39:29;3.20;99.90
18454;DHT22;9356;52.202;20.950;2022-12-07T05:40:37;3.20;99.90
18454;DHT22;9356;52.202;20.950;2022-12-07T05:41:40;3.30;99.90
18454;DHT22;9356;52.202;20.950;2022-12-07T05:43:01;3.30;99.90
18454;DHT22;9356;52.202;20.950;2022-12-07T05:44:06;3.20;99.90
18454;DHT22;9356;52.202;20.950;2022-12-07T05:45:09;3.20;99.90
18454;DHT22;9356;52.202;20.950;2022-12-07T05:46:13;3.30;99.90
18454;DHT22;9356;52.202;20.950;2022-12-07T05:47:18;3.30;99.90
18454;DHT22;9356;52.202;20.950;2022-12-07T05:48:21;3.20;99.90
18454;DHT22;9356;52.202;20.950;2022-12-07T05:49:23;3.20;99.90
18454;DHT22;9356;52.202;20.950;2022-12-07T05:50:28;3.20;99.90
18454;DHT22;9356;52.202;20.950;2022-12-07T05:51:35;3.20;99.90
18454;DHT22;9356;52.202;20.950;2022-12-07T05:52:37;3.20;99.90
18454;DHT22;9356;52.202;20.950;2022-12-07T05:53:43;3.20;99.90
18454;DHT22;9356;52.202;20.950;2022-12-07T05:54:45;3.20;99.90
18454;DHT22;9356;52.202;20.950;2022-12-07T05:55:49;3.20;99.90
18454;DHT22;9356;52.202;20.950;2022-12-07T05:56:55;3.30;99.90
18454;DHT22;9356;52.202;20.950;2022-12-07T05:57:59;3.20;99.90
18454;DHT22;9356;52.202;20.950;2022-12-07T05:59:20;3.30;99.90
18454;DHT22;9356;52.202;20.950;2022-12-07T06:00:25;3.30;99.90
18454;DHT22;9356;52.202;20.950;2022-12-07T06:01:28;3.30;99.90
18454;DHT22;9356;52.202;20.950;2022-12-07T06:02:31;3.20;99.90
18454;DHT22;9356;52.202;20.950;2022-12-07T06:03:34;3.10;99.90
18454;DHT22;9356;52.202;20.950;2022-12-07T06:04:42;3.10;99.90
18454;DHT22;9356;52.202;20.950;2022-12-07T06:05:47;3.10;99.90
18454;DHT22;9356;52.202;20.950;2022-12-07T06:06:50;3.50;99.90
18454;DHT22;9356;52.202;20.950;2022-12-07T06:07:53;3.10;99.90
18454;DHT22;9356;52.202;20.950;2022-12-07T06:08:56;3.10;99.90
18454;DHT22;9356;52.202;20.950;2022-12-07T06:09:59;3.00;99.90
18454;DHT22;9356;52.202;20.950;2022-12-07T06:11:04;3.00;99.90
18454;DHT22;9356;52.202;20.950;2022-12-07T06:12:25;3.00;99.90
18454;DHT22;9356;52.202;20.950;2022-12-07T06:13:36;3.10;99.90
18454;DHT22;9356;52.202;20.950;2022-12-07T06:14:48;3.00;99.90
18454;DHT22;9356;52.202;20.950;2022-12-07T06:15:51;3.00;99.90
18454;DHT22;9356;52.202;20.950;2022-12-07T06:16:54;3.00;99.90
18454;DHT22;9356;52.202;20.950;2022-12-07T06:17:57;3.10;99.90
18454;DHT22;9356;52.202;20.950;2022-12-07T06:19:00;3.00;99.90
18454;DHT22;9356;52.202;20.950;2022-12-07T06:20:04;3.00;99.90
18454;DHT22;9356;52.202;20.950;2022-12-07T06:21:09;3.10;99.90
18454;DHT22;9356;52.202;20.950;2022-12-07T06:22:12;3.00;99.90
18454;DHT22;9356;52.202;20.950;2022-12-07T06:23:15;3.00;99.90
18454;DHT22;9356;52.202;20.950;2022-12-07T06:24:18;3.00;99.90
18454;DHT22;9356;52.202;20.950;2022-12-07T06:25:22;3.00;99.90
18454;DHT22;9356;52.202;20.950;2022-12-07T06:26:24;3.20;99.90
18454;DHT22;9356;52.202;20.950;2022-12-07T06:27:27;3.00;99.90
18454;DHT22;9356;52.202;20.950;2022-12-07T06:28:31;3.00;99.90
18454;DHT22;9356;52.202;20.950;2022-12-07T06:29:34;1.90;99.90
18454;DHT22;9356;52.202;20.950;2022-12-07T06:30:37;3.00;99.90
18454;DHT22;9356;52.202;20.950;2022-12-07T06:31:40;3.00;99.90
18454;DHT22;9356;52.202;20.950;2022-12-07T06:32:43;3.00;99.90
18454;DHT22;9356;52.202;20.950;2022-12-07T06:33:47;3.10;99.90
18454;DHT22;9356;52.202;20.950;2022-12-07T06:34:50;3.10;99.90
18454;DHT22;9356;52.202;20.950;2022-12-07T06:35:53;4.40;99.90
18454;DHT22;9356;52.202;20.950;2022-12-07T06:36:57;4.50;99.90
18454;DHT22;9356;52.202;20.950;2022-12-07T06:38:01;3.00;99.90
18454;DHT22;9356;52.202;20.950;2022-12-07T06:39:05;3.00;99.90
18454;DHT22;9356;52.202;20.950;2022-12-07T06:40:10;3.00;99.90
18454;DHT22;9356;52.202;20.950;2022-12-07T06:41:16;4.10;99.90
18454;DHT22;9356;52.202;20.950;2022-12-07T06:42:21;3.00;99.90
18454;DHT22;9356;52.202;20.950;2022-12-07T06:43:24;3.00;99.90
18454;DHT22;9356;52.202;20.950;2022-12-07T06:44:27;3.00;99.90
18454;DHT22;9356;52.202;20.950;2022-12-07T06:45:30;3.00;99.90
18454;DHT22;9356;52.202;20.950;2022-12-07T06:46:33;2.90;99.90
18454;DHT22;9356;52.202;20.950;2022-12-07T06:47:37;3.00;99.90
18454;DHT22;9356;52.202;20.950;2022-12-07T06:48:45;3.00;99.90
18454;DHT22;9356;52.202;20.950;2022-12-07T06:49:48;3.00;99.90
18454;DHT22;9356;52.202;20.950;2022-12-07T06:50:52;4.60;99.90
18454;DHT22;9356;52.202;20.950;2022-12-07T06:51:57;2.90;99.90
18454;DHT22;9356;52.202;20.950;2022-12-07T06:53:00;2.90;99.90
18454;DHT22;9356;52.202;20.950;2022-12-07T06:54:04;2.80;99.90
18454;DHT22;9356;52.202;20.950;2022-12-07T06:55:07;2.80;99.90
18454;DHT22;9356;52.202;20.950;2022-12-07T06:56:10;1.60;99.90
18454;DHT22;9356;52.202;20.950;2022-12-07T06:57:13;2.90;99.90
18454;DHT22;9356;52.202;20.950;2022-12-07T06:58:16;2.90;99.90
18454;DHT22;9356;52.202;20.950;2022-12-07T06:59:19;3.00;99.90
18454;DHT22;9356;52.202;20.950;2022-12-07T07:00:22;3.00;99.90
18454;DHT22;9356;52.202;20.950;2022-12-07T07:01:25;3.00;99.90
18454;DHT22;9356;52.202;20.950;2022-12-07T07:02:29;3.00;99.90
18454;DHT22;9356;52.202;20.950;2022-12-07T07:03:32;3.10;99.90
18454;DHT22;9356;52.202;20.950;2022-12-07T07:04:34;2.90;99.90
18454;DHT22;9356;52.202;20.950;2022-12-07T07:05:38;3.00;99.90
18454;DHT22;9356;52.202;20.950;2022-12-07T07:06:40;2.90;99.90
18454;DHT22;9356;52.202;20.950;2022-12-07T07:07:45;2.00;99.90
18454;DHT22;9356;52.202;20.950;2022-12-07T07:09:12;2.90;99.90